Meloi — 3FOD — position and weather

sailwx.info

Track history (hours):
 
Tides and Currents Weather Stations Pressure Air Temp Water Temp Dewpoint Dewpoint Depression Visibility Wind Speed Wind Dir Waves Ship Positions

Meloi

Last reported at 2015-May-13 00:04 UTC. Time now 2015-May-22 11:30 UTC.
Position S 34°51' W 057°22'.
Warning: this ship's position is 9 days out of date.

Length 180 m; draft 9.7 m.

Type: Cargo ship. MMSI: 351132000.

Date/timePositionNaut miles runAvg speedWind from/ knotsBaromVisibWave heightAir tempDewpointWater temp
2015-May-13 00:04S 34°51' W 057°22'0 0.0
2015-May-12 23:33S 34°51' W 057°22'0 0.1
2015-May-12 22:33S 34°51' W 057°22'2 2.4
2015-May-12 21:33S 34°50' W 057°24'9 9.3
2015-May-12 20:33S 34°46' W 057°35'1010.0
2015-May-12 19:33S 34°44' W 057°47'3 3.4
2015-May-12 18:33S 34°43' W 057°51'0 0.1
2015-May-12 17:33S 34°43' W 057°51'0 0.2
2015-May-12 16:33S 34°43' W 057°51'0 0.1
2015-May-12 15:33S 34°43' W 057°51'1 1.4
2015-May-12 14:34S 34°43' W 057°52'1111.1
2015-May-12 13:33S 34°39' W 058°05'9 9.4
2015-May-12 12:33S 34°35' W 058°16'  
Track history (hours):
 
Tides and Currents Weather Stations Pressure Air Temp Water Temp Dewpoint Dewpoint Depression Visibility Wind Speed Wind Dir Waves Ship Positions

Meloi

Last reported at 2015-May-13 00:04 UTC. Time now 2015-May-22 11:30 UTC.
Position S 34°51' W 057°22'.
Warning: this ship's position is 9 days out of date.

Length 180 m; draft 9.7 m.

Type: Cargo ship. MMSI: 351132000.

Date/timePositionNaut miles runAvg speedWind from/ knotsBaromVisibWave heightAir tempDewpointWater temp
2015-May-13 00:04S 34°51' W 057°22'0 0.0
2015-May-12 23:33S 34°51' W 057°22'0 0.1
2015-May-12 22:33S 34°51' W 057°22'2 2.4
2015-May-12 21:33S 34°50' W 057°24'9 9.3
2015-May-12 20:33S 34°46' W 057°35'1010.0
2015-May-12 19:33S 34°44' W 057°47'3 3.4
2015-May-12 18:33S 34°43' W 057°51'0 0.1
2015-May-12 17:33S 34°43' W 057°51'0 0.2
2015-May-12 16:33S 34°43' W 057°51'0 0.1
2015-May-12 15:33S 34°43' W 057°51'1 1.4
2015-May-12 14:34S 34°43' W 057°52'1111.1
2015-May-12 13:33S 34°39' W 058°05'9 9.4
2015-May-12 12:33S 34°35' W 058°16'  

Dump ship's entire track history